CW2798 Aduanas ES current weather conditions

sailwx.info

Wind from 274 at 2 knots gusting 5

Air temperature 25.0° C
Dewpoint 11.5° C

Last reported at 2015-Mar-02 11:46 UTC.
Time now 2015-Mar-02 12:47 UTC

Location: N 38°48' E 000°11'.
View on Google Maps.

See reports from other nearby stations

  
Tides and Currents Weather Stations Pressure Air Temp Water Temp Dewpoint Dewpoint Depression Visibility Wind Speed Wind Dir Waves Ship Positions
date/time (UTC)wind fromknots sea level pressurealtimeterstation pressurevisibilityair tempwater tempwave heightnotes
2015-Mar-02 11:46 274 2 gusting 5 25.0
2015-Mar-02 11:31 250 4 gusting 6 25.6
2015-Mar-02 11:16 247 2 gusting 4 25.0
2015-Mar-02 10:46 257 6 gusting 11 24.4
2015-Mar-02 10:16 263 4 gusting 7 23.9
2015-Mar-02 09:46 21.7
2015-Mar-02 09:16 21.1
2015-Mar-02 08:46 21.1
2015-Mar-02 08:31 19.4
2015-Mar-02 08:16 18.9
2015-Mar-02 07:46 17.2
2015-Mar-02 07:31 15.6
2015-Mar-02 07:16 16.1
2015-Mar-02 07:01 16.1
2015-Mar-02 06:31 16.1
2015-Mar-02 06:16 16.7
2015-Mar-02 05:46 15.6
2015-Mar-02 05:31 15.0
2015-Mar-02 05:16 15.6
2015-Mar-02 05:01 14.4
2015-Mar-02 04:46 14.4
2015-Mar-02 04:31 16.1
2015-Mar-02 04:16 16.1
2015-Mar-02 03:16 15.0
2015-Mar-02 03:01 16.1
2015-Mar-02 02:31 17.8
2015-Mar-02 02:16 281 3 gusting 6 19.4
2015-Mar-02 01:46 294 18.9
2015-Mar-02 01:31 307 1 gusting 6 18.3
2015-Mar-02 01:16 296 17.2
2015-Mar-02 01:01 16.1
2015-Mar-02 00:46 15.0
2015-Mar-02 00:31 260 1 gusting 1 15.6
2015-Mar-02 00:01 14.4
2015-Mar-01 23:46 15.0
2015-Mar-01 23:31 15.6
2015-Mar-01 23:01 15.0
2015-Mar-01 22:31 279 0 gusting 4 16.1
2015-Mar-01 22:16 15.0
2015-Mar-01 22:01 15.0
2015-Mar-01 21:01 256 1 gusting 6 15.6
2015-Mar-01 20:46 288 2 gusting 5 16.7
2015-Mar-01 20:31 274 3 gusting 5 16.7
2015-Mar-01 20:16 286 0 gusting 4 16.7
2015-Mar-01 19:46 295 0 gusting 1 16.7
2015-Mar-01 19:31 285 1 gusting 5 16.7
2015-Mar-01 18:46 282 4 gusting 7 16.7
2015-Mar-01 18:31 265 4 gusting 7 17.2
2015-Mar-01 18:16 260 5 gusting 7 17.8
2015-Mar-01 18:01 248 2 gusting 6 17.8
2015-Mar-01 17:46 269 4 gusting 5 18.3
2015-Mar-01 17:31 264 3 gusting 8 18.9
2015-Mar-01 17:16 263 2 gusting 5 18.9
2015-Mar-01 16:01 274 6 gusting 11 20.6
2015-Mar-01 15:31 241 6 gusting 11 21.7
2015-Mar-01 15:16 244 6 gusting 12 21.7
2015-Mar-01 15:01 232 6 gusting 9 22.2
2015-Mar-01 14:46 216 4 gusting 12 22.2
2015-Mar-01 14:31 226 2 gusting 8 22.2
2015-Mar-01 13:46 063 1 gusting 4 20.0
2015-Mar-01 13:31 067 21.1
2015-Mar-01 13:16 091 0 gusting 1 20.6
2015-Mar-01 13:01 116 0 gusting 4 20.0
2015-Mar-01 12:46 069 0 gusting 4 20.0
2015-Mar-01 12:31 129 0 gusting 6 19.4
2015-Mar-01 12:16 109 0 gusting 3 19.4
2015-Mar-01 11:46 088 0 gusting 1 19.4
2015-Mar-01 10:46 095 1 gusting 6 17.8
2015-Mar-01 10:31 172 18.9
2015-Mar-01 10:16 069 0 gusting 5 17.2
2015-Mar-01 10:01 090 0 gusting 3 18.3
2015-Mar-01 09:46 054 0 gusting 0 18.9
2015-Mar-01 09:02 17.8
2015-Mar-01 08:47 300 17.2
2015-Mar-01 08:18 15.6
2015-Mar-01 08:02 099 15.0
2015-Mar-01 07:47 14.4
2015-Mar-01 07:17 294 5 gusting 12 17.8
2015-Mar-01 06:47 314 4 gusting 11 16.7
2015-Mar-01 06:01 11.7
2015-Mar-01 05:46 11.7
2015-Mar-01 05:31 12.2
2015-Mar-01 05:16 11.7
2015-Mar-01 05:01 11.1
2015-Mar-01 04:16 11.7
2015-Mar-01 03:46 11.1
2015-Mar-01 03:31 11.1
2015-Mar-01 03:16 11.1
2015-Mar-01 03:01 11.1
2015-Mar-01 02:46 10.0
2015-Mar-01 02:31 10.6
2015-Mar-01 01:46 10.6
2015-Mar-01 01:16 11.7
2015-Mar-01 01:01 11.7
2015-Mar-01 00:46 11.7
2015-Mar-01 00:31 11.7
2015-Mar-01 00:16 302 0 gusting 3 11.7
2015-Feb-28 23:46 299 11.1
2015-Feb-28 23:16 12.2
2015-Feb-28 22:46 13.3
2015-Feb-28 22:31 282 0 gusting 5 13.3
2015-Feb-28 22:16 306 1 gusting 2 13.3
2015-Feb-28 22:01 302 1 gusting 2 13.3
2015-Feb-28 21:31 317 13.3
2015-Feb-28 21:16 310 1 gusting 3 13.9
2015-Feb-28 21:01 280 4 gusting 6 13.9
2015-Feb-28 20:46 265 3 gusting 6 13.9
2015-Feb-28 20:16 282 3 gusting 9 13.9
2015-Feb-28 20:01 277 5 gusting 7 13.9
2015-Feb-28 19:46 253 3 gusting 6 13.3
2015-Feb-28 19:16 266 2 gusting 5 13.3
2015-Feb-28 19:01 273 2 gusting 3 13.3
2015-Feb-28 18:46 272 4 gusting 7 13.3
2015-Feb-28 17:31 251 2 gusting 6 13.9
2015-Feb-28 17:16 242 4 gusting 6 14.4
2015-Feb-28 16:31 229 6 gusting 17 14.4
2015-Feb-28 15:46 214 5 gusting 12 15.0
2015-Feb-28 15:31 219 2 gusting 6 15.6
2015-Feb-28 15:16 224 2 gusting 8 15.6
2015-Feb-28 14:46 173 3 gusting 6 15.0
2015-Feb-28 14:31 163 3 gusting 7 15.0
2015-Feb-28 14:16 147 3 gusting 8 15.0
2015-Feb-28 14:01 153 3 gusting 7 15.0
2015-Feb-28 13:46 148 4 gusting 9 14.4
2015-Feb-28 13:01 163 2 gusting 6 15.0
2015-Feb-28 12:46 158 1 gusting 6 14.4
2015-Feb-28 12:31 128 1 gusting 6 14.4
2015-Feb-28 12:01 129 0 gusting 4 14.4